sensor_id;sensor_type;location;lat;lon;timestamp;P1;durP1;ratioP1;P2;durP2;ratioP2
71771;SDS011;59606;52.138;5.424;2023-04-24T00:00:43;1.88;;;0.70;;
71771;SDS011;59606;52.138;5.424;2023-04-24T00:03:11;1.63;;;0.93;;
71771;SDS011;59606;52.138;5.424;2023-04-24T00:05:39;1.40;;;0.52;;
71771;SDS011;59606;52.138;5.424;2023-04-24T00:08:06;1.70;;;0.70;;
71771;SDS011;59606;52.138;5.424;2023-04-24T00:10:33;1.20;;;0.60;;
71771;SDS011;59606;52.138;5.424;2023-04-24T00:12:59;1.58;;;0.50;;
71771;SDS011;59606;52.138;5.424;2023-04-24T00:15:26;1.73;;;0.60;;
71771;SDS011;59606;52.138;5.424;2023-04-24T00:17:52;2.05;;;0.70;;
71771;SDS011;59606;52.138;5.424;2023-04-24T00:20:19;1.10;;;0.60;;
71771;SDS011;59606;52.138;5.424;2023-04-24T00:22:46;3.28;;;1.05;;
71771;SDS011;59606;52.138;5.424;2023-04-24T00:25:12;2.00;;;1.10;;
71771;SDS011;59606;52.138;5.424;2023-04-24T00:27:39;4.53;;;1.20;;
71771;SDS011;59606;52.138;5.424;2023-04-24T00:30:05;2.03;;;1.10;;
71771;SDS011;59606;52.138;5.424;2023-04-24T00:32:32;2.60;;;1.30;;
71771;SDS011;59606;52.138;5.424;2023-04-24T00:34:59;3.90;;;1.30;;
71771;SDS011;59606;52.138;5.424;2023-04-24T00:37:25;2.72;;;1.00;;
71771;SDS011;59606;52.138;5.424;2023-04-24T00:39:52;1.83;;;1.05;;
71771;SDS011;59606;52.138;5.424;2023-04-24T00:42:18;4.18;;;1.20;;
71771;SDS011;59606;52.138;5.424;2023-04-24T00:44:45;2.37;;;1.00;;
71771;SDS011;59606;52.138;5.424;2023-04-24T00:47:11;2.60;;;1.08;;
71771;SDS011;59606;52.138;5.424;2023-04-24T00:49:39;2.08;;;1.30;;
71771;SDS011;59606;52.138;5.424;2023-04-24T00:52:05;4.18;;;1.65;;
71771;SDS011;59606;52.138;5.424;2023-04-24T00:54:35;3.47;;;1.33;;
71771;SDS011;59606;52.138;5.424;2023-04-24T00:57:04;2.87;;;1.70;;
71771;SDS011;59606;52.138;5.424;2023-04-24T00:59:31;2.60;;;1.30;;
71771;SDS011;59606;52.138;5.424;2023-04-24T01:01:58;4.03;;;1.63;;
71771;SDS011;59606;52.138;5.424;2023-04-24T01:04:25;3.65;;;2.00;;
71771;SDS011;59606;52.138;5.424;2023-04-24T01:06:52;3.63;;;1.60;;
71771;SDS011;59606;52.138;5.424;2023-04-24T01:09:19;4.40;;;1.93;;
71771;SDS011;59606;52.138;5.424;2023-04-24T01:11:47;4.20;;;1.67;;
71771;SDS011;59606;52.138;5.424;2023-04-24T01:14:14;3.03;;;1.83;;
71771;SDS011;59606;52.138;5.424;2023-04-24T01:16:40;4.90;;;2.00;;
71771;SDS011;59606;52.138;5.424;2023-04-24T01:19:07;3.58;;;2.05;;
71771;SDS011;59606;52.138;5.424;2023-04-24T01:21:37;4.93;;;2.03;;
71771;SDS011;59606;52.138;5.424;2023-04-24T01:24:04;5.90;;;2.70;;
71771;SDS011;59606;52.138;5.424;2023-04-24T01:26:31;4.70;;;2.20;;
71771;SDS011;59606;52.138;5.424;2023-04-24T01:29:00;5.70;;;2.60;;
71771;SDS011;59606;52.138;5.424;2023-04-24T01:31:27;4.28;;;2.75;;
71771;SDS011;59606;52.138;5.424;2023-04-24T01:33:54;7.67;;;2.43;;
71771;SDS011;59606;52.138;5.424;2023-04-24T01:36:22;4.28;;;2.17;;
71771;SDS011;59606;52.138;5.424;2023-04-24T01:38:52;8.18;;;2.97;;
71771;SDS011;59606;52.138;5.424;2023-04-24T01:41:19;5.15;;;2.67;;
71771;SDS011;59606;52.138;5.424;2023-04-24T01:43:46;5.03;;;2.90;;
71771;SDS011;59606;52.138;5.424;2023-04-24T01:46:14;4.53;;;2.30;;
71771;SDS011;59606;52.138;5.424;2023-04-24T01:48:41;6.40;;;2.83;;
71771;SDS011;59606;52.138;5.424;2023-04-24T01:51:08;4.82;;;2.72;;
71771;SDS011;59606;52.138;5.424;2023-04-24T01:53:34;5.88;;;3.28;;
71771;SDS011;59606;52.138;5.424;2023-04-24T01:56:01;5.93;;;2.83;;
71771;SDS011;59606;52.138;5.424;2023-04-24T01:58:27;6.57;;;3.10;;
71771;SDS011;59606;52.138;5.424;2023-04-24T02:00:56;5.85;;;2.85;;
71771;SDS011;59606;52.138;5.424;2023-04-24T02:03:25;5.22;;;3.08;;
71771;SDS011;59606;52.138;5.424;2023-04-24T02:05:52;5.47;;;2.90;;
71771;SDS011;59606;52.138;5.424;2023-04-24T02:08:19;8.88;;;3.33;;
71771;SDS011;59606;52.138;5.424;2023-04-24T02:10:45;5.17;;;2.80;;
71771;SDS011;59606;52.138;5.424;2023-04-24T02:13:12;5.07;;;2.80;;
71771;SDS011;59606;52.138;5.424;2023-04-24T02:15:38;5.82;;;3.17;;
71771;SDS011;59606;52.138;5.424;2023-04-24T02:18:05;5.97;;;2.97;;
71771;SDS011;59606;52.138;5.424;2023-04-24T02:20:33;5.90;;;2.90;;
71771;SDS011;59606;52.138;5.424;2023-04-24T02:23:02;8.10;;;3.27;;
71771;SDS011;59606;52.138;5.424;2023-04-24T02:25:28;4.95;;;2.63;;
71771;SDS011;59606;52.138;5.424;2023-04-24T02:27:55;5.35;;;2.58;;
71771;SDS011;59606;52.138;5.424;2023-04-24T02:30:21;5.45;;;2.72;;
71771;SDS011;59606;52.138;5.424;2023-04-24T02:32:48;5.55;;;2.70;;
71771;SDS011;59606;52.138;5.424;2023-04-24T02:35:14;6.57;;;2.73;;
71771;SDS011;59606;52.138;5.424;2023-04-24T02:37:41;6.95;;;3.10;;
71771;SDS011;59606;52.138;5.424;2023-04-24T02:40:07;5.80;;;2.40;;
71771;SDS011;59606;52.138;5.424;2023-04-24T02:42:34;4.63;;;2.40;;
71771;SDS011;59606;52.138;5.424;2023-04-24T02:45:01;5.07;;;2.30;;
71771;SDS011;59606;52.138;5.424;2023-04-24T02:47:27;4.80;;;2.60;;
71771;SDS011;59606;52.138;5.424;2023-04-24T02:49:54;5.70;;;2.45;;
71771;SDS011;59606;52.138;5.424;2023-04-24T02:52:20;4.70;;;2.55;;
71771;SDS011;59606;52.138;5.424;2023-04-24T02:54:47;7.22;;;2.28;;
71771;SDS011;59606;52.138;5.424;2023-04-24T02:57:13;4.80;;;2.63;;
71771;SDS011;59606;52.138;5.424;2023-04-24T02:59:41;4.37;;;2.40;;
71771;SDS011;59606;52.138;5.424;2023-04-24T03:02:08;4.47;;;2.42;;
71771;SDS011;59606;52.138;5.424;2023-04-24T03:04:34;8.93;;;2.53;;
71771;SDS011;59606;52.138;5.424;2023-04-24T03:07:01;5.85;;;2.67;;
71771;SDS011;59606;52.138;5.424;2023-04-24T03:09:27;5.95;;;2.90;;
71771;SDS011;59606;52.138;5.424;2023-04-24T03:11:54;4.20;;;2.37;;
71771;SDS011;59606;52.138;5.424;2023-04-24T03:14:21;5.93;;;2.90;;
71771;SDS011;59606;52.138;5.424;2023-04-24T03:16:48;7.63;;;2.78;;
71771;SDS011;59606;52.138;5.424;2023-04-24T03:19:14;6.22;;;2.85;;
71771;SDS011;59606;52.138;5.424;2023-04-24T03:21:41;5.78;;;2.78;;
71771;SDS011;59606;52.138;5.424;2023-04-24T03:24:08;4.70;;;2.40;;
71771;SDS011;59606;52.138;5.424;2023-04-24T03:26:35;7.47;;;2.55;;
71771;SDS011;59606;52.138;5.424;2023-04-24T03:29:02;7.15;;;2.60;;
71771;SDS011;59606;52.138;5.424;2023-04-24T03:31:28;5.30;;;2.65;;
71771;SDS011;59606;52.138;5.424;2023-04-24T03:33:55;5.57;;;2.75;;
71771;SDS011;59606;52.138;5.424;2023-04-24T03:36:21;6.87;;;2.53;;
71771;SDS011;59606;52.138;5.424;2023-04-24T03:38:48;6.55;;;2.50;;
71771;SDS011;59606;52.138;5.424;2023-04-24T03:41:14;4.95;;;2.50;;
71771;SDS011;59606;52.138;5.424;2023-04-24T03:43:41;4.53;;;2.38;;
71771;SDS011;59606;52.138;5.424;2023-04-24T03:46:07;7.03;;;2.75;;
71771;SDS011;59606;52.138;5.424;2023-04-24T03:48:35;5.80;;;3.03;;
71771;SDS011;59606;52.138;5.424;2023-04-24T03:51:02;8.00;;;3.05;;
71771;SDS011;59606;52.138;5.424;2023-04-24T03:53:29;7.28;;;2.90;;
71771;SDS011;59606;52.138;5.424;2023-04-24T03:55:55;6.95;;;2.88;;
71771;SDS011;59606;52.138;5.424;2023-04-24T03:58:22;7.20;;;3.22;;
71771;SDS011;59606;52.138;5.424;2023-04-24T04:00:48;7.47;;;2.40;;
71771;SDS011;59606;52.138;5.424;2023-04-24T04:03:15;5.05;;;2.35;;
71771;SDS011;59606;52.138;5.424;2023-04-24T04:05:42;5.20;;;2.40;;
71771;SDS011;59606;52.138;5.424;2023-04-24T04:08:09;5.70;;;2.67;;
71771;SDS011;59606;52.138;5.424;2023-04-24T04:10:35;4.75;;;2.08;;
71771;SDS011;59606;52.138;5.424;2023-04-24T04:13:02;4.33;;;2.10;;
71771;SDS011;59606;52.138;5.424;2023-04-24T04:15:28;3.08;;;1.52;;
71771;SDS011;59606;52.138;5.424;2023-04-24T04:17:55;3.05;;;1.15;;
71771;SDS011;59606;52.138;5.424;2023-04-24T04:20:21;2.85;;;1.10;;
71771;SDS011;59606;52.138;5.424;2023-04-24T04:22:48;3.72;;;1.40;;
71771;SDS011;59606;52.138;5.424;2023-04-24T04:25:14;2.43;;;0.90;;
71771;SDS011;59606;52.138;5.424;2023-04-24T04:27:41;2.65;;;0.85;;
71771;SDS011;59606;52.138;5.424;2023-04-24T04:30:08;2.55;;;1.20;;
71771;SDS011;59606;52.138;5.424;2023-04-24T04:32:36;4.13;;;1.00;;
71771;SDS011;59606;52.138;5.424;2023-04-24T04:35:03;4.03;;;1.30;;
71771;SDS011;59606;52.138;5.424;2023-04-24T04:37:31;3.33;;;1.60;;
71771;SDS011;59606;52.138;5.424;2023-04-24T04:40:02;3.15;;;1.40;;
71771;SDS011;59606;52.138;5.424;2023-04-24T04:42:33;3.25;;;1.40;;
71771;SDS011;59606;52.138;5.424;2023-04-24T04:45:07;4.13;;;1.55;;
71771;SDS011;59606;52.138;5.424;2023-04-24T04:47:35;4.47;;;1.80;;
71771;SDS011;59606;52.138;5.424;2023-04-24T04:50:01;4.50;;;1.93;;
71771;SDS011;59606;52.138;5.424;2023-04-24T04:52:29;5.07;;;2.17;;
71771;SDS011;59606;52.138;5.424;2023-04-24T04:54:56;7.47;;;2.80;;
71771;SDS011;59606;52.138;5.424;2023-04-24T04:57:23;5.47;;;2.50;;
71771;SDS011;59606;52.138;5.424;2023-04-24T04:59:50;9.25;;;3.10;;
71771;SDS011;59606;52.138;5.424;2023-04-24T05:02:17;6.60;;;3.00;;
71771;SDS011;59606;52.138;5.424;2023-04-24T05:04:43;9.18;;;3.85;;
71771;SDS011;59606;52.138;5.424;2023-04-24T05:07:12;8.82;;;3.25;;
71771;SDS011;59606;52.138;5.424;2023-04-24T05:09:38;6.85;;;2.85;;
71771;SDS011;59606;52.138;5.424;2023-04-24T05:12:05;6.70;;;3.10;;
71771;SDS011;59606;52.138;5.424;2023-04-24T05:14:31;7.80;;;2.90;;
71771;SDS011;59606;52.138;5.424;2023-04-24T05:16:58;7.30;;;2.80;;
71771;SDS011;59606;52.138;5.424;2023-04-24T05:19:24;6.18;;;2.75;;
71771;SDS011;59606;52.138;5.424;2023-04-24T05:21:51;6.38;;;2.72;;
71771;SDS011;59606;52.138;5.424;2023-04-24T05:24:17;7.55;;;3.08;;
71771;SDS011;59606;52.138;5.424;2023-04-24T05:26:44;8.47;;;2.90;;
71771;SDS011;59606;52.138;5.424;2023-04-24T05:29:10;7.80;;;3.47;;
71771;SDS011;59606;52.138;5.424;2023-04-24T05:31:37;7.18;;;3.17;;
71771;SDS011;59606;52.138;5.424;2023-04-24T05:34:05;6.32;;;2.70;;
71771;SDS011;59606;52.138;5.424;2023-04-24T05:36:31;5.57;;;2.92;;
71771;SDS011;59606;52.138;5.424;2023-04-24T05:38:58;6.63;;;2.57;;
71771;SDS011;59606;52.138;5.424;2023-04-24T05:41:25;7.95;;;2.60;;
71771;SDS011;59606;52.138;5.424;2023-04-24T05:43:51;8.15;;;2.72;;
71771;SDS011;59606;52.138;5.424;2023-04-24T05:46:17;7.15;;;2.75;;
71771;SDS011;59606;52.138;5.424;2023-04-24T05:48:44;7.10;;;2.83;;
71771;SDS011;59606;52.138;5.424;2023-04-24T05:51:10;5.93;;;2.83;;
71771;SDS011;59606;52.138;5.424;2023-04-24T05:53:37;7.07;;;3.15;;
71771;SDS011;59606;52.138;5.424;2023-04-24T05:56:04;12.30;;;2.90;;
71771;SDS011;59606;52.138;5.424;2023-04-24T05:58:30;6.15;;;2.17;;
71771;SDS011;59606;52.138;5.424;2023-04-24T06:00:57;4.22;;;1.88;;
71771;SDS011;59606;52.138;5.424;2023-04-24T06:03:24;7.43;;;1.60;;
71771;SDS011;59606;52.138;5.424;2023-04-24T06:05:51;5.35;;;1.90;;
71771;SDS011;59606;52.138;5.424;2023-04-24T06:08:17;5.43;;;1.30;;
71771;SDS011;59606;52.138;5.424;2023-04-24T06:10:44;3.67;;;1.38;;
71771;SDS011;59606;52.138;5.424;2023-04-24T06:13:11;3.25;;;1.27;;
71771;SDS011;59606;52.138;5.424;2023-04-24T06:15:38;3.87;;;1.03;;
71771;SDS011;59606;52.138;5.424;2023-04-24T06:18:04;2.88;;;0.98;;
71771;SDS011;59606;52.138;5.424;2023-04-24T06:20:31;2.60;;;0.88;;
71771;SDS011;59606;52.138;5.424;2023-04-24T06:22:57;1.90;;;0.63;;
71771;SDS011;59606;52.138;5.424;2023-04-24T06:25:25;2.42;;;0.60;;
71771;SDS011;59606;52.138;5.424;2023-04-24T06:27:54;1.93;;;0.60;;
71771;SDS011;59606;52.138;5.424;2023-04-24T06:30:21;1.35;;;0.60;;
71771;SDS011;59606;52.138;5.424;2023-04-24T06:32:48;3.83;;;0.65;;
71771;SDS011;59606;52.138;5.424;2023-04-24T06:35:15;2.05;;;0.68;;
71771;SDS011;59606;52.138;5.424;2023-04-24T06:37:42;4.25;;;0.63;;
71771;SDS011;59606;52.138;5.424;2023-04-24T06:40:10;1.80;;;0.50;;
71771;SDS011;59606;52.138;5.424;2023-04-24T06:42:37;5.43;;;1.20;;
71771;SDS011;59606;52.138;5.424;2023-04-24T06:45:03;7.78;;;1.60;;
71771;SDS011;59606;52.138;5.424;2023-04-24T06:47:31;8.57;;;2.38;;
71771;SDS011;59606;52.138;5.424;2023-04-24T06:49:57;7.72;;;2.97;;
71771;SDS011;59606;52.138;5.424;2023-04-24T06:52:24;11.40;;;3.90;;
71771;SDS011;59606;52.138;5.424;2023-04-24T06:54:50;10.20;;;3.75;;
71771;SDS011;59606;52.138;5.424;2023-04-24T06:57:17;11.00;;;4.90;;
71771;SDS011;59606;52.138;5.424;2023-04-24T06:59:44;10.85;;;4.90;;
71771;SDS011;59606;52.138;5.424;2023-04-24T07:02:11;14.35;;;5.28;;
71771;SDS011;59606;52.138;5.424;2023-04-24T07:04:37;14.50;;;5.50;;
71771;SDS011;59606;52.138;5.424;2023-04-24T07:07:04;12.38;;;5.22;;
71771;SDS011;59606;52.138;5.424;2023-04-24T07:09:30;14.88;;;6.20;;
71771;SDS011;59606;52.138;5.424;2023-04-24T07:12:00;13.75;;;5.50;;
71771;SDS011;59606;52.138;5.424;2023-04-24T07:14:26;10.80;;;5.80;;
71771;SDS011;59606;52.138;5.424;2023-04-24T07:16:53;18.53;;;7.30;;
71771;SDS011;59606;52.138;5.424;2023-04-24T07:19:19;19.23;;;5.78;;
71771;SDS011;59606;52.138;5.424;2023-04-24T07:21:46;15.18;;;5.93;;
71771;SDS011;59606;52.138;5.424;2023-04-24T07:24:12;19.77;;;5.93;;
71771;SDS011;59606;52.138;5.424;2023-04-24T07:26:39;10.63;;;5.43;;
71771;SDS011;59606;52.138;5.424;2023-04-24T07:29:06;11.73;;;6.00;;
71771;SDS011;59606;52.138;5.424;2023-04-24T07:31:33;11.68;;;5.10;;
71771;SDS011;59606;52.138;5.424;2023-04-24T07:34:00;16.50;;;6.03;;
71771;SDS011;59606;52.138;5.424;2023-04-24T07:36:27;14.60;;;5.43;;
71771;SDS011;59606;52.138;5.424;2023-04-24T07:38:54;16.55;;;5.75;;
71771;SDS011;59606;52.138;5.424;2023-04-24T07:41:22;16.43;;;4.90;;
71771;SDS011;59606;52.138;5.424;2023-04-24T07:43:50;15.35;;;5.00;;
71771;SDS011;59606;52.138;5.424;2023-04-24T07:46:17;16.90;;;6.10;;
71771;SDS011;59606;52.138;5.424;2023-04-24T07:48:43;10.13;;;4.82;;
71771;SDS011;59606;52.138;5.424;2023-04-24T07:51:10;17.15;;;6.03;;
71771;SDS011;59606;52.138;5.424;2023-04-24T07:53:39;19.83;;;5.50;;
71771;SDS011;59606;52.138;5.424;2023-04-24T07:56:06;11.77;;;4.82;;
71771;SDS011;59606;52.138;5.424;2023-04-24T07:58:33;12.60;;;5.50;;
71771;SDS011;59606;52.138;5.424;2023-04-24T08:00:59;10.80;;;5.15;;
71771;SDS011;59606;52.138;5.424;2023-04-24T08:03:26;20.48;;;5.53;;
71771;SDS011;59606;52.138;5.424;2023-04-24T08:05:53;16.80;;;5.80;;
71771;SDS011;59606;52.138;5.424;2023-04-24T08:08:20;13.18;;;5.22;;
71771;SDS011;59606;52.138;5.424;2023-04-24T08:10:49;14.45;;;4.90;;
71771;SDS011;59606;52.138;5.424;2023-04-24T08:13:16;12.25;;;5.13;;
71771;SDS011;59606;52.138;5.424;2023-04-24T08:15:42;8.15;;;3.10;;
71771;SDS011;59606;52.138;5.424;2023-04-24T08:18:09;13.13;;;3.80;;
71771;SDS011;59606;52.138;5.424;2023-04-24T08:20:38;10.18;;;3.85;;
71771;SDS011;59606;52.138;5.424;2023-04-24T08:23:05;14.52;;;3.60;;
71771;SDS011;59606;52.138;5.424;2023-04-24T08:25:31;8.85;;;3.13;;
71771;SDS011;59606;52.138;5.424;2023-04-24T08:27:58;13.88;;;3.25;;
71771;SDS011;59606;52.138;5.424;2023-04-24T08:30:25;10.10;;;3.20;;
71771;SDS011;59606;52.138;5.424;2023-04-24T08:32:52;6.95;;;2.70;;
71771;SDS011;59606;52.138;5.424;2023-04-24T08:35:19;10.30;;;2.75;;
71771;SDS011;59606;52.138;5.424;2023-04-24T08:37:45;15.25;;;3.03;;
71771;SDS011;59606;52.138;5.424;2023-04-24T08:40:12;7.97;;;2.30;;
71771;SDS011;59606;52.138;5.424;2023-04-24T08:42:43;9.40;;;3.40;;
71771;SDS011;59606;52.138;5.424;2023-04-24T08:45:11;9.00;;;2.88;;
71771;SDS011;59606;52.138;5.424;2023-04-24T08:47:39;11.07;;;2.78;;
71771;SDS011;59606;52.138;5.424;2023-04-24T08:50:07;10.30;;;2.47;;
71771;SDS011;59606;52.138;5.424;2023-04-24T08:52:35;10.45;;;2.90;;
71771;SDS011;59606;52.138;5.424;2023-04-24T08:55:03;7.13;;;2.37;;
71771;SDS011;59606;52.138;5.424;2023-04-24T08:57:30;12.27;;;3.53;;
71771;SDS011;59606;52.138;5.424;2023-04-24T08:59:57;7.50;;;2.03;;
71771;SDS011;59606;52.138;5.424;2023-04-24T09:02:24;12.35;;;2.85;;
71771;SDS011;59606;52.138;5.424;2023-04-24T09:04:52;9.05;;;1.88;;
71771;SDS011;59606;52.138;5.424;2023-04-24T09:07:19;9.60;;;1.67;;
71771;SDS011;59606;52.138;5.424;2023-04-24T09:09:46;8.52;;;1.70;;
71771;SDS011;59606;52.138;5.424;2023-04-24T09:12:13;6.30;;;1.33;;
71771;SDS011;59606;52.138;5.424;2023-04-24T09:14:40;6.38;;;1.20;;
71771;SDS011;59606;52.138;5.424;2023-04-24T09:17:11;12.68;;;1.83;;
71771;SDS011;59606;52.138;5.424;2023-04-24T09:19:38;13.60;;;1.83;;
71771;SDS011;59606;52.138;5.424;2023-04-24T09:22:06;10.82;;;1.60;;
71771;SDS011;59606;52.138;5.424;2023-04-24T09:24:33;15.55;;;2.05;;
71771;SDS011;59606;52.138;5.424;2023-04-24T09:27:00;6.55;;;1.27;;
71771;SDS011;59606;52.138;5.424;2023-04-24T09:29:30;11.25;;;1.73;;
71771;SDS011;59606;52.138;5.424;2023-04-24T09:31:58;8.53;;;2.13;;
71771;SDS011;59606;52.138;5.424;2023-04-24T09:34:25;6.70;;;2.00;;
71771;SDS011;59606;52.138;5.424;2023-04-24T09:36:53;5.30;;;1.48;;
71771;SDS011;59606;52.138;5.424;2023-04-24T09:39:20;9.23;;;2.08;;
71771;SDS011;59606;52.138;5.424;2023-04-24T09:41:48;8.40;;;1.60;;
71771;SDS011;59606;52.138;5.424;2023-04-24T09:44:17;12.43;;;2.07;;
71771;SDS011;59606;52.138;5.424;2023-04-24T09:47:08;7.95;;;1.55;;
71771;SDS011;59606;52.138;5.424;2023-04-24T09:49:34;9.13;;;1.80;;
71771;SDS011;59606;52.138;5.424;2023-04-24T09:54:30;7.70;;;2.17;;
71771;SDS011;59606;52.138;5.424;2023-04-24T09:56:57;5.50;;;1.10;;
71771;SDS011;59606;52.138;5.424;2023-04-24T09:59:26;5.55;;;1.20;;
71771;SDS011;59606;52.138;5.424;2023-04-24T10:01:52;7.45;;;1.35;;
71771;SDS011;59606;52.138;5.424;2023-04-24T10:04:19;4.03;;;1.17;;
71771;SDS011;59606;52.138;5.424;2023-04-24T10:06:47;6.65;;;1.90;;
71771;SDS011;59606;52.138;5.424;2023-04-24T10:09:18;7.53;;;1.37;;
71771;SDS011;59606;52.138;5.424;2023-04-24T10:11:46;6.80;;;1.67;;
71771;SDS011;59606;52.138;5.424;2023-04-24T10:14:15;9.10;;;1.23;;
71771;SDS011;59606;52.138;5.424;2023-04-24T10:16:43;5.95;;;1.20;;
71771;SDS011;59606;52.138;5.424;2023-04-24T10:19:10;7.10;;;1.55;;
71771;SDS011;59606;52.138;5.424;2023-04-24T10:21:39;6.27;;;1.40;;
71771;SDS011;59606;52.138;5.424;2023-04-24T10:24:08;5.07;;;1.20;;
71771;SDS011;59606;52.138;5.424;2023-04-24T10:26:36;6.03;;;1.20;;
71771;SDS011;59606;52.138;5.424;2023-04-24T10:29:03;9.27;;;1.60;;
71771;SDS011;59606;52.138;5.424;2023-04-24T10:31:36;5.10;;;1.27;;
71771;SDS011;59606;52.138;5.424;2023-04-24T10:34:06;4.87;;;0.90;;
71771;SDS011;59606;52.138;5.424;2023-04-24T10:36:35;3.47;;;0.80;;
71771;SDS011;59606;52.138;5.424;2023-04-24T10:39:12;2.22;;;0.60;;
71771;SDS011;59606;52.138;5.424;2023-04-24T10:41:40;5.60;;;1.75;;
71771;SDS011;59606;52.138;5.424;2023-04-24T10:44:08;3.95;;;0.70;;
71771;SDS011;59606;52.138;5.424;2023-04-24T10:46:42;3.93;;;0.70;;
71771;SDS011;59606;52.138;5.424;2023-04-24T10:49:11;2.60;;;0.85;;
71771;SDS011;59606;52.138;5.424;2023-04-24T10:51:50;6.20;;;0.90;;
71771;SDS011;59606;52.138;5.424;2023-04-24T10:59:45;5.90;;;0.80;;
71771;SDS011;59606;52.138;5.424;2023-04-24T11:02:16;4.43;;;0.55;;
71771;SDS011;59606;52.138;5.424;2023-04-24T11:04:44;3.53;;;0.45;;
71771;SDS011;59606;52.138;5.424;2023-04-24T11:07:14;6.25;;;0.63;;
71771;SDS011;59606;52.138;5.424;2023-04-24T11:09:40;5.53;;;1.10;;
71771;SDS011;59606;52.138;5.424;2023-04-24T11:12:10;2.03;;;0.50;;
71771;SDS011;59606;52.138;5.424;2023-04-24T11:17:31;4.22;;;0.60;;
71771;SDS011;59606;52.138;5.424;2023-04-24T11:20:01;5.55;;;0.98;;
71771;SDS011;59606;52.138;5.424;2023-04-24T11:22:52;2.63;;;0.60;;
71771;SDS011;59606;52.138;5.424;2023-04-24T11:25:24;2.83;;;0.67;;
71771;SDS011;59606;52.138;5.424;2023-04-24T11:27:51;6.57;;;1.05;;
71771;SDS011;59606;52.138;5.424;2023-04-24T11:30:29;4.63;;;0.98;;
71771;SDS011;59606;52.138;5.424;2023-04-24T11:33:01;4.50;;;0.90;;
71771;SDS011;59606;52.138;5.424;2023-04-24T11:35:29;5.97;;;0.90;;
71771;SDS011;59606;52.138;5.424;2023-04-24T11:38:03;6.30;;;0.50;;
71771;SDS011;59606;52.138;5.424;2023-04-24T11:40:34;0.70;;;0.57;;
71771;SDS011;59606;52.138;5.424;2023-04-24T11:43:00;5.78;;;0.60;;
71771;SDS011;59606;52.138;5.424;2023-04-24T11:45:28;5.18;;;0.55;;
71771;SDS011;59606;52.138;5.424;2023-04-24T11:47:56;4.60;;;0.70;;
71771;SDS011;59606;52.138;5.424;2023-04-24T11:50:24;3.57;;;0.50;;
71771;SDS011;59606;52.138;5.424;2023-04-24T11:52:53;4.00;;;0.55;;
71771;SDS011;59606;52.138;5.424;2023-04-24T11:57:47;1.83;;;0.50;;
71771;SDS011;59606;52.138;5.424;2023-04-24T12:00:21;1.63;;;0.57;;
71771;SDS011;59606;52.138;5.424;2023-04-24T12:02:49;2.10;;;0.80;;
71771;SDS011;59606;52.138;5.424;2023-04-24T12:05:25;1.08;;;0.60;;
71771;SDS011;59606;52.138;5.424;2023-04-24T12:07:53;2.25;;;0.38;;
71771;SDS011;59606;52.138;5.424;2023-04-24T12:10:20;2.30;;;0.30;;
71771;SDS011;59606;52.138;5.424;2023-04-24T12:12:48;3.58;;;0.65;;
71771;SDS011;59606;52.138;5.424;2023-04-24T12:15:17;2.00;;;0.70;;
71771;SDS011;59606;52.138;5.424;2023-04-24T12:17:45;3.55;;;0.40;;
71771;SDS011;59606;52.138;5.424;2023-04-24T12:20:12;1.73;;;0.32;;
71771;SDS011;59606;52.138;5.424;2023-04-24T12:22:44;4.03;;;0.73;;
71771;SDS011;59606;52.138;5.424;2023-04-24T12:25:17;4.00;;;0.50;;
71771;SDS011;59606;52.138;5.424;2023-04-24T12:27:45;2.33;;;0.50;;
71771;SDS011;59606;52.138;5.424;2023-04-24T12:30:16;4.93;;;0.47;;
71771;SDS011;59606;52.138;5.424;2023-04-24T12:32:43;5.07;;;0.52;;
71771;SDS011;59606;52.138;5.424;2023-04-24T12:35:12;4.55;;;0.73;;
71771;SDS011;59606;52.138;5.424;2023-04-24T12:37:46;3.60;;;1.17;;
71771;SDS011;59606;52.138;5.424;2023-04-24T12:40:13;1.50;;;0.70;;
71771;SDS011;59606;52.138;5.424;2023-04-24T12:42:47;7.85;;;0.70;;
71771;SDS011;59606;52.138;5.424;2023-04-24T12:45:15;5.72;;;0.65;;
71771;SDS011;59606;52.138;5.424;2023-04-24T12:47:42;5.55;;;0.80;;
71771;SDS011;59606;52.138;5.424;2023-04-24T12:50:14;2.58;;;0.80;;
71771;SDS011;59606;52.138;5.424;2023-04-24T12:52:42;9.03;;;1.10;;
71771;SDS011;59606;52.138;5.424;2023-04-24T12:55:09;4.72;;;0.73;;
71771;SDS011;59606;52.138;5.424;2023-04-24T12:57:37;9.60;;;0.93;;
71771;SDS011;59606;52.138;5.424;2023-04-24T13:00:05;6.47;;;1.08;;
71771;SDS011;59606;52.138;5.424;2023-04-24T13:02:37;5.28;;;1.05;;
71771;SDS011;59606;52.138;5.424;2023-04-24T13:05:03;6.93;;;1.10;;
71771;SDS011;59606;52.138;5.424;2023-04-24T13:07:30;7.38;;;0.95;;
71771;SDS011;59606;52.138;5.424;2023-04-24T13:09:57;7.93;;;1.65;;
71771;SDS011;59606;52.138;5.424;2023-04-24T13:12:24;7.00;;;1.42;;
71771;SDS011;59606;52.138;5.424;2023-04-24T13:14:51;13.25;;;1.90;;
71771;SDS011;59606;52.138;5.424;2023-04-24T13:17:18;6.77;;;1.30;;
71771;SDS011;59606;52.138;5.424;2023-04-24T13:19:45;9.23;;;1.13;;
71771;SDS011;59606;52.138;5.424;2023-04-24T13:22:12;6.32;;;1.08;;
71771;SDS011;59606;52.138;5.424;2023-04-24T13:24:39;6.85;;;1.20;;
71771;SDS011;59606;52.138;5.424;2023-04-24T13:27:09;7.95;;;1.30;;
71771;SDS011;59606;52.138;5.424;2023-04-24T13:29:36;8.60;;;1.43;;
71771;SDS011;59606;52.138;5.424;2023-04-24T13:32:03;7.55;;;1.20;;
71771;SDS011;59606;52.138;5.424;2023-04-24T13:34:29;11.65;;;1.40;;
71771;SDS011;59606;52.138;5.424;2023-04-24T13:36:56;9.65;;;1.75;;
71771;SDS011;59606;52.138;5.424;2023-04-24T13:39:25;7.57;;;1.38;;
71771;SDS011;59606;52.138;5.424;2023-04-24T13:41:53;9.77;;;1.10;;
71771;SDS011;59606;52.138;5.424;2023-04-24T13:44:20;6.53;;;1.27;;
71771;SDS011;59606;52.138;5.424;2023-04-24T13:46:49;10.30;;;2.22;;
71771;SDS011;59606;52.138;5.424;2023-04-24T13:49:18;8.98;;;1.40;;
71771;SDS011;59606;52.138;5.424;2023-04-24T13:51:45;9.13;;;2.08;;
71771;SDS011;59606;52.138;5.424;2023-04-24T13:54:12;6.80;;;1.20;;
71771;SDS011;59606;52.138;5.424;2023-04-24T13:56:42;9.10;;;1.63;;
71771;SDS011;59606;52.138;5.424;2023-04-24T13:59:08;9.40;;;1.40;;
71771;SDS011;59606;52.138;5.424;2023-04-24T14:01:35;9.07;;;1.52;;
71771;SDS011;59606;52.138;5.424;2023-04-24T14:04:02;4.18;;;1.42;;
71771;SDS011;59606;52.138;5.424;2023-04-24T14:06:29;8.07;;;1.83;;
71771;SDS011;59606;52.138;5.424;2023-04-24T14:08:55;8.77;;;2.00;;
71771;SDS011;59606;52.138;5.424;2023-04-24T14:11:22;6.78;;;1.40;;
71771;SDS011;59606;52.138;5.424;2023-04-24T14:13:49;7.32;;;1.58;;
71771;SDS011;59606;52.138;5.424;2023-04-24T14:16:16;7.95;;;1.58;;
71771;SDS011;59606;52.138;5.424;2023-04-24T14:18:42;6.00;;;1.63;;
71771;SDS011;59606;52.138;5.424;2023-04-24T14:21:10;7.10;;;1.52;;
71771;SDS011;59606;52.138;5.424;2023-04-24T14:23:37;6.50;;;1.50;;
71771;SDS011;59606;52.138;5.424;2023-04-24T14:26:03;8.50;;;1.52;;
71771;SDS011;59606;52.138;5.424;2023-04-24T14:28:30;9.18;;;2.00;;
71771;SDS011;59606;52.138;5.424;2023-04-24T14:30:56;8.50;;;1.57;;
71771;SDS011;59606;52.138;5.424;2023-04-24T14:33:23;5.85;;;1.58;;
71771;SDS011;59606;52.138;5.424;2023-04-24T14:35:49;7.05;;;1.55;;
71771;SDS011;59606;52.138;5.424;2023-04-24T14:38:16;8.07;;;1.80;;
71771;SDS011;59606;52.138;5.424;2023-04-24T14:40:42;9.23;;;2.00;;
71771;SDS011;59606;52.138;5.424;2023-04-24T14:43:29;6.73;;;1.67;;
71771;SDS011;59606;52.138;5.424;2023-04-24T14:45:56;14.10;;;2.28;;
71771;SDS011;59606;52.138;5.424;2023-04-24T14:48:22;7.95;;;1.33;;
71771;SDS011;59606;52.138;5.424;2023-04-24T14:50:49;7.88;;;1.92;;
71771;SDS011;59606;52.138;5.424;2023-04-24T14:53:16;9.95;;;2.38;;
71771;SDS011;59606;52.138;5.424;2023-04-24T14:55:42;11.27;;;1.80;;
71771;SDS011;59606;52.138;5.424;2023-04-24T14:58:09;12.52;;;2.17;;
71771;SDS011;59606;52.138;5.424;2023-04-24T15:00:36;11.88;;;1.73;;